createdAt,value
2019-05-23T00:00:49.152Z,101957.50
2019-05-23T00:03:22.484Z,101958.95
2019-05-23T00:05:55.759Z,101953.67
2019-05-23T00:08:30.496Z,101958.69
2019-05-23T00:11:05.745Z,101961.00
2019-05-23T00:13:39.440Z,101955.96
2019-05-23T00:16:14.040Z,101960.22
2019-05-23T00:18:47.665Z,101948.09
2019-05-23T00:21:21.018Z,101948.78
2019-05-23T00:23:54.933Z,101948.78
2019-05-23T00:26:27.968Z,101951.69
2019-05-23T00:29:10.105Z,101950.06
2019-05-23T00:31:36.084Z,101951.80
2019-05-23T00:34:09.871Z,101946.02
2019-05-23T00:36:42.851Z,101941.77
2019-05-23T00:39:15.777Z,101956.28
2019-05-23T00:41:48.902Z,101953.31
2019-05-23T00:44:23.432Z,101954.38
2019-05-23T00:46:56.400Z,101949.05
2019-05-23T00:49:29.462Z,101949.05
2019-05-23T00:52:02.366Z,101953.16
2019-05-23T00:54:35.275Z,101948.38
2019-05-23T00:57:08.596Z,101944.02
2019-05-23T00:59:41.578Z,101951.41
2019-05-23T01:02:14.590Z,101949.95
2019-05-23T01:04:47.889Z,101943.11
2019-05-23T01:07:21.252Z,101942.89
2019-05-23T01:09:54.267Z,101939.55
2019-05-23T01:12:27.156Z,101943.59
2019-05-23T01:15:01.189Z,101943.59
2019-05-23T01:17:34.250Z,101936.31
2019-05-23T01:20:08.681Z,101937.88
2019-05-23T01:22:42.588Z,101932.80
2019-05-23T01:25:18.757Z,101931.91
2019-05-23T01:27:51.749Z,101934.44
2019-05-23T01:30:24.614Z,101934.44
2019-05-23T01:32:57.999Z,101930.50
2019-05-23T01:35:31.357Z,101925.05
2019-05-23T01:38:04.532Z,101926.98
2019-05-23T01:40:38.412Z,101927.47
2019-05-23T01:43:11.463Z,101919.01
2019-05-23T01:45:45.184Z,101918.28
2019-05-23T01:48:18.108Z,101918.12
2019-05-23T01:50:51.647Z,101911.59
2019-05-23T01:53:24.564Z,101912.18
2019-05-23T01:55:57.543Z,101907.92
2019-05-23T01:58:30.407Z,101910.89
2019-05-23T02:01:03.497Z,101900.87
2019-05-23T02:03:36.813Z,101903.70
2019-05-23T02:06:10.234Z,101902.73
2019-05-23T02:08:43.400Z,101897.83
2019-05-23T02:11:18.276Z,101897.83
2019-05-23T02:13:51.141Z,101898.69
2019-05-23T02:16:24.219Z,101902.25
2019-05-23T02:18:57.600Z,101903.59
2019-05-23T02:21:30.500Z,101906.02
2019-05-23T02:24:04.076Z,101901.49
2019-05-23T02:26:37.509Z,101899.28
2019-05-23T02:29:10.389Z,101899.42
2019-05-23T02:31:43.415Z,101897.07
2019-05-23T02:34:16.277Z,101895.89
2019-05-23T02:36:49.545Z,101894.70
2019-05-23T02:39:22.828Z,101890.28
2019-05-23T02:41:55.848Z,101893.03
2019-05-23T02:44:29.049Z,101888.62
2019-05-23T02:47:02.579Z,101888.62
2019-05-23T02:49:36.610Z,101890.07
2019-05-23T02:52:46.355Z,101892.17
2019-05-23T02:55:27.417Z,101892.98
2019-05-23T02:58:09.117Z,101886.53
2019-05-23T03:00:54.645Z,101889.97
2019-05-23T03:03:29.780Z,101889.02
2019-05-23T03:06:03.668Z,101885.18
2019-05-23T03:08:36.828Z,101883.18
2019-05-23T03:11:30.621Z,101888.60
2019-05-23T03:14:04.591Z,101883.28
2019-05-23T03:16:39.685Z,101880.87
2019-05-23T03:19:21.653Z,101880.25
2019-05-23T03:21:56.087Z,101873.80
2019-05-23T03:24:30.720Z,101872.06
2019-05-23T03:27:03.680Z,101868.02
2019-05-23T03:29:37.758Z,101868.51
2019-05-23T03:32:11.415Z,101867.64
2019-05-23T03:34:45.049Z,101862.16
2019-05-23T03:37:18.448Z,101868.30
2019-05-23T03:39:51.933Z,101862.16
2019-05-23T03:42:25.084Z,101862.61
2019-05-23T03:44:58.585Z,101862.61
2019-05-23T03:47:31.557Z,101862.39
2019-05-23T03:50:04.837Z,101859.08
2019-05-23T03:52:37.721Z,101858.49
2019-05-23T03:55:10.740Z,101860.22
2019-05-23T03:57:44.078Z,101860.22
2019-05-23T04:00:17.218Z,101858.66
2019-05-23T04:02:50.278Z,101856.73
2019-05-23T04:05:23.239Z,101854.90
2019-05-23T04:07:56.125Z,101847.67
2019-05-23T04:10:29.725Z,101850.75
2019-05-23T04:13:02.966Z,101852.95
2019-05-23T04:15:36.396Z,101857.00
2019-05-23T04:18:09.423Z,101860.94
2019-05-23T04:20:43.156Z,101858.03
2019-05-23T04:23:16.857Z,101853.11
2019-05-23T04:25:49.913Z,101850.84
2019-05-23T04:28:22.861Z,101850.84
2019-05-23T04:30:55.730Z,101853.84
2019-05-23T04:33:28.861Z,101848.55
2019-05-23T04:36:01.898Z,101850.56
2019-05-23T04:38:36.433Z,101850.56
2019-05-23T04:41:10.237Z,101843.85
2019-05-23T04:43:43.185Z,101843.85
2019-05-23T04:46:16.298Z,101842.93
2019-05-23T04:48:49.700Z,101849.03
2019-05-23T04:51:22.681Z,101845.92
2019-05-23T04:53:55.727Z,101854.16
2019-05-23T04:56:28.612Z,101852.44
2019-05-23T04:59:02.679Z,101846.58
2019-05-23T05:01:36.223Z,101852.75
2019-05-23T05:04:09.399Z,101853.72
2019-05-23T05:06:42.992Z,101855.36
2019-05-23T05:09:16.260Z,101860.02
2019-05-23T05:11:49.313Z,101860.02
2019-05-23T05:14:22.259Z,101859.30
2019-05-23T05:16:55.233Z,101857.33
2019-05-23T05:19:28.558Z,101857.33
2019-05-23T05:22:02.046Z,101866.41
2019-05-23T05:24:39.380Z,101868.47
2019-05-23T05:27:09.712Z,101868.47
2019-05-23T05:29:42.658Z,101862.92
2019-05-23T05:32:16.229Z,101869.24
2019-05-23T05:34:49.479Z,101872.91
2019-05-23T05:37:22.437Z,101872.91
2019-05-23T05:39:55.957Z,101875.30
2019-05-23T05:42:28.830Z,101879.88
2019-05-23T05:45:01.898Z,101877.09
2019-05-23T05:47:34.875Z,101890.58
2019-05-23T05:50:10.674Z,101890.58
2019-05-23T05:52:43.622Z,101882.22
2019-05-23T05:55:16.541Z,101889.37
2019-05-23T05:57:49.508Z,101889.37
2019-05-23T06:00:23.331Z,101896.64
2019-05-23T06:03:04.404Z,101894.13
2019-05-23T06:05:31.406Z,101894.13
2019-05-23T06:08:04.786Z,101895.81
2019-05-23T06:10:37.856Z,101895.81
2019-05-23T06:13:11.135Z,101893.83
2019-05-23T06:15:44.410Z,101895.13
2019-05-23T06:18:17.351Z,101902.20
2019-05-23T06:20:50.395Z,101902.20
2019-05-23T06:23:23.535Z,101902.65
2019-05-23T06:25:56.479Z,101905.37
2019-05-23T06:28:30.676Z,101903.84
2019-05-23T06:31:03.810Z,101903.84
2019-05-23T06:33:36.756Z,101907.82
2019-05-23T06:36:09.710Z,101901.53
2019-05-23T06:38:43.187Z,101901.53
2019-05-23T06:41:16.605Z,101897.75
2019-05-23T06:43:49.495Z,101897.97
2019-05-23T06:46:22.665Z,101894.63
2019-05-23T06:48:55.721Z,101899.52
2019-05-23T06:51:28.665Z,101895.93
2019-05-23T06:54:01.691Z,101895.93
2019-05-23T06:56:34.602Z,101897.00
2019-05-23T06:59:07.736Z,101895.88
2019-05-23T07:01:40.709Z,101901.80
2019-05-23T07:04:13.954Z,101901.80
2019-05-23T07:06:47.700Z,101901.25
2019-05-23T07:09:21.417Z,101899.77
2019-05-23T07:11:57.670Z,101898.54
2019-05-23T07:14:30.546Z,101900.83
2019-05-23T07:17:03.542Z,101900.83
2019-05-23T07:19:36.791Z,101901.56
2019-05-23T07:22:11.455Z,101901.56
2019-05-23T07:24:57.474Z,101906.97
2019-05-23T07:27:20.219Z,101903.48
2019-05-23T07:29:53.426Z,101899.03
2019-05-23T07:32:26.393Z,101899.03
2019-05-23T07:34:59.466Z,101901.45
2019-05-23T07:37:32.698Z,101901.64
2019-05-23T07:40:06.055Z,101905.67
2019-05-23T07:42:39.032Z,101900.56
2019-05-23T07:45:12.646Z,101897.59
2019-05-23T07:47:45.927Z,101895.98
2019-05-23T07:50:19.101Z,101903.06
2019-05-23T07:52:52.610Z,101897.28
2019-05-23T07:55:25.606Z,101898.52
2019-05-23T07:57:58.511Z,101898.52
2019-05-23T08:00:31.513Z,101896.00
2019-05-23T08:03:06.191Z,101886.47
2019-05-23T08:05:39.368Z,101891.61
2019-05-23T08:08:12.497Z,101892.13
2019-05-23T08:10:45.638Z,101888.22
2019-05-23T08:13:18.823Z,101891.27
2019-05-23T08:15:52.231Z,101891.27
2019-05-23T08:18:25.200Z,101906.14
2019-05-23T08:20:58.107Z,101906.14
2019-05-23T08:23:31.114Z,101910.21
2019-05-23T08:26:04.101Z,101908.03
2019-05-23T08:28:53.375Z,101913.47
2019-05-23T08:31:12.224Z,101917.75
2019-05-23T08:33:45.343Z,101927.06
2019-05-23T08:36:18.267Z,101928.23
2019-05-23T08:38:51.424Z,101919.98
2019-05-23T08:41:24.572Z,101920.84
2019-05-23T08:43:57.536Z,101908.08
2019-05-23T08:46:30.474Z,101909.06
2019-05-23T08:49:04.109Z,101912.85
2019-05-23T08:51:37.346Z,101910.09
2019-05-23T08:54:10.491Z,101910.82
2019-05-23T08:56:43.647Z,101918.72
2019-05-23T08:59:16.752Z,101913.78
2019-05-23T09:01:49.985Z,101914.61
2019-05-23T09:04:22.929Z,101923.62
2019-05-23T09:06:55.925Z,101907.51
2019-05-23T09:09:30.402Z,101905.36
2019-05-23T09:12:03.649Z,101911.91
2019-05-23T09:14:36.602Z,101899.90
2019-05-23T09:17:09.992Z,101899.90
2019-05-23T09:19:43.171Z,101913.34
2019-05-23T09:22:16.548Z,101916.21
2019-05-23T09:24:49.627Z,101914.68
2019-05-23T09:27:22.951Z,101902.77
2019-05-23T09:29:55.998Z,101902.77
2019-05-23T09:32:28.997Z,101902.58
2019-05-23T09:35:19.223Z,101884.43
2019-05-23T09:37:37.133Z,101897.41
2019-05-23T09:40:10.800Z,101899.56
2019-05-23T09:42:43.942Z,101890.27
2019-05-23T09:45:17.385Z,101893.37
2019-05-23T09:47:51.612Z,101889.15
2019-05-23T09:50:24.794Z,101889.15
2019-05-23T09:53:00.459Z,101887.59
2019-05-23T09:55:32.495Z,101897.82
2019-05-23T09:58:05.451Z,101890.97
2019-05-23T10:00:38.416Z,101871.89
2019-05-23T10:03:11.695Z,101869.14
2019-05-23T10:05:44.737Z,101860.89
2019-05-23T10:08:17.728Z,101867.13
2019-05-23T10:10:50.655Z,101868.64
2019-05-23T10:13:38.506Z,101875.99
2019-05-23T10:15:59.161Z,101881.48
2019-05-23T10:18:32.240Z,101861.39
2019-05-23T10:21:05.385Z,101854.85
2019-05-23T10:23:38.300Z,101841.86
2019-05-23T10:26:11.345Z,101841.86
2019-05-23T10:28:44.186Z,101850.66
2019-05-23T10:31:17.281Z,101856.48
2019-05-23T10:33:50.241Z,101856.48
2019-05-23T10:36:23.087Z,101856.53
2019-05-23T10:38:56.111Z,101851.65
2019-05-23T10:41:29.575Z,101851.29
2019-05-23T10:44:02.627Z,101840.95
2019-05-23T10:46:35.558Z,101840.95
2019-05-23T10:49:08.489Z,101842.17
2019-05-23T10:51:41.415Z,101839.56
2019-05-23T10:54:14.321Z,101839.00
2019-05-23T10:56:47.249Z,101824.77
2019-05-23T10:59:20.224Z,101829.19
2019-05-23T11:01:53.408Z,101822.33
2019-05-23T11:04:26.540Z,101826.35
2019-05-23T11:06:59.865Z,101830.70
2019-05-23T11:09:37.730Z,101819.98
2019-05-23T11:12:08.143Z,101812.97
2019-05-23T11:14:41.334Z,101806.89
2019-05-23T17:42:40.520Z,101595.52
2019-05-23T17:45:14.284Z,101594.75
2019-05-23T17:47:47.341Z,101594.75
2019-05-23T17:50:20.448Z,101594.80
2019-05-23T17:52:53.548Z,101603.77
2019-05-23T17:55:26.602Z,101603.77
2019-05-23T17:57:59.735Z,101601.06
2019-05-23T18:00:32.636Z,101601.06
2019-05-23T18:03:05.904Z,101593.36
2019-05-23T18:05:39.324Z,101593.36
2019-05-23T18:08:12.374Z,101591.73
2019-05-23T18:10:46.252Z,101600.27
2019-05-23T18:13:20.266Z,101600.27
2019-05-23T18:15:53.461Z,101598.41
2019-05-23T18:18:26.376Z,101596.64
2019-05-23T18:20:59.526Z,101593.16
2019-05-23T18:23:32.883Z,101598.33
2019-05-23T18:26:06.767Z,101598.33
2019-05-23T18:28:39.858Z,101601.63
2019-05-23T18:31:13.891Z,101600.01
2019-05-23T18:33:47.260Z,101599.17
2019-05-23T18:36:20.213Z,101599.17
2019-05-23T18:38:53.144Z,101591.50
2019-05-23T18:41:26.256Z,101597.86
2019-05-23T18:43:59.765Z,101602.33
2019-05-23T18:46:32.630Z,101602.33
2019-05-23T18:49:05.592Z,101594.83
2019-05-23T18:51:38.422Z,101589.70
2019-05-23T18:54:11.398Z,101589.70
2019-05-23T18:56:44.343Z,101595.44
2019-05-23T18:59:17.365Z,101599.50
2019-05-23T19:01:50.330Z,101599.50
2019-05-23T19:04:23.386Z,101600.84
2019-05-23T19:06:56.322Z,101598.42
2019-05-23T19:09:29.266Z,101598.42
2019-05-23T19:12:02.673Z,101597.58
2019-05-23T19:14:35.517Z,101599.56
2019-05-23T19:17:08.364Z,101599.56
2019-05-23T19:19:41.294Z,101604.30
2019-05-23T19:22:14.318Z,101599.64
2019-05-23T19:24:47.312Z,101599.47
2019-05-23T19:27:20.243Z,101599.47
2019-05-23T19:29:53.513Z,101594.95
2019-05-23T19:32:26.425Z,101596.44
2019-05-23T19:34:59.375Z,101595.56
2019-05-23T19:37:32.468Z,101595.56
2019-05-23T19:40:05.702Z,101594.95
2019-05-23T19:42:38.567Z,101596.95
2019-05-23T19:45:11.818Z,101600.46
2019-05-23T19:47:44.740Z,101599.18
2019-05-23T19:50:17.860Z,101599.18
2019-05-23T19:52:50.883Z,101602.63
2019-05-23T19:55:24.240Z,101602.63
2019-05-23T19:57:57.251Z,101596.36
2019-05-23T20:00:30.394Z,101597.53
2019-05-23T20:03:04.248Z,101597.69
2019-05-23T20:05:37.600Z,101597.69
2019-05-23T20:08:11.352Z,101599.55
2019-05-23T20:10:45.406Z,101600.20
2019-05-23T20:13:19.051Z,101603.22
2019-05-23T20:15:52.207Z,101603.22
2019-05-23T20:18:25.389Z,101601.47
2019-05-23T20:20:58.598Z,101604.43
2019-05-23T20:23:31.877Z,101601.27
2019-05-23T20:26:07.915Z,101599.70
2019-05-23T20:28:40.417Z,101599.70
2019-05-23T20:31:13.519Z,101600.28
2019-05-23T20:33:46.604Z,101600.28
2019-05-23T20:36:19.745Z,101595.67
2019-05-23T21:22:26.245Z,101578.78
2019-05-23T21:24:59.203Z,101587.40
2019-05-23T21:27:32.235Z,101587.97
2019-05-23T21:30:05.581Z,101588.42
2019-05-23T21:32:38.703Z,101588.42
2019-05-23T21:35:11.647Z,101588.30
2019-05-23T21:37:45.015Z,101588.30
2019-05-23T21:40:31.400Z,101583.16
2019-05-23T21:43:04.739Z,101581.77
2019-05-23T21:45:37.719Z,101581.77
2019-05-23T21:48:10.995Z,101587.47
2019-05-23T21:50:44.046Z,101585.17
2019-05-23T21:53:16.957Z,101579.45
2019-05-23T21:55:49.947Z,101585.30
2019-05-23T21:58:23.141Z,101580.73
2019-05-23T22:01:08.418Z,101580.73
2019-05-23T22:03:41.351Z,101579.72
2019-05-23T22:06:14.369Z,101577.70
2019-05-23T22:08:47.787Z,101579.95
2019-05-23T22:11:20.792Z,101580.18
2019-05-23T22:13:53.835Z,101580.18
2019-05-23T22:16:26.781Z,101581.31
2019-05-23T22:18:59.802Z,101574.94
2019-05-23T22:21:33.017Z,101584.78
2019-05-23T22:24:05.967Z,101577.52
2019-05-23T22:26:38.994Z,101577.52
2019-05-23T22:29:11.960Z,101577.88
2019-05-23T22:31:45.046Z,101575.13
2019-05-23T22:34:18.012Z,101575.13
2019-05-23T22:36:51.041Z,101576.06
2019-05-23T22:39:24.121Z,101567.52
2019-05-23T22:41:57.116Z,101567.52
2019-05-23T22:44:30.114Z,101576.64
2019-05-23T22:47:03.185Z,101571.34
2019-05-23T22:49:36.253Z,101567.18
2019-05-23T22:52:09.265Z,101568.08
2019-05-23T22:54:42.564Z,101568.08
2019-05-23T22:57:15.618Z,101561.88
2019-05-23T22:59:48.625Z,101560.30
2019-05-23T23:02:21.583Z,101557.58
2019-05-23T23:04:54.516Z,101556.13
2019-05-23T23:07:27.957Z,101555.54
2019-05-23T23:10:01.137Z,101555.31
2019-05-23T23:12:34.231Z,101559.37
2019-05-23T23:15:07.407Z,101562.08
2019-05-23T23:17:40.361Z,101559.27
2019-05-23T23:20:13.601Z,101561.98
2019-05-23T23:22:46.849Z,101558.05
2019-05-23T23:25:20.113Z,101560.66
2019-05-23T23:27:53.127Z,101564.62
2019-05-23T23:30:26.142Z,101564.62
2019-05-23T23:32:59.079Z,101560.02
2019-05-23T23:35:32.275Z,101561.20
2019-05-23T23:38:05.412Z,101560.10
2019-05-23T23:40:38.488Z,101553.67
2019-05-23T23:43:11.411Z,101558.38
2019-05-23T23:45:44.430Z,101558.38
2019-05-23T23:48:17.343Z,101546.30
2019-05-23T23:50:50.322Z,101546.30
2019-05-23T23:53:23.463Z,101537.50
2019-05-23T23:55:57.601Z,101537.50
2019-05-23T23:58:30.652Z,101534.80
